sensor_id;sensor_type;location;lat;lon;timestamp;P1;durP1;ratioP1;P2;durP2;ratioP2
66946;SDS011;53853;51.982;5.928;2023-08-06T00:01:58;8.32;;;4.35;;
66946;SDS011;53853;51.982;5.928;2023-08-06T00:04:28;5.28;;;4.28;;
66946;SDS011;53853;51.982;5.928;2023-08-06T00:06:58;5.00;;;3.78;;
66946;SDS011;53853;51.982;5.928;2023-08-06T00:09:31;4.28;;;3.40;;
66946;SDS011;53853;51.982;5.928;2023-08-06T00:12:01;5.15;;;3.97;;
66946;SDS011;53853;51.982;5.928;2023-08-06T00:14:31;4.72;;;3.58;;
66946;SDS011;53853;51.982;5.928;2023-08-06T00:17:01;4.65;;;3.65;;
66946;SDS011;53853;51.982;5.928;2023-08-06T00:19:31;7.57;;;4.63;;
66946;SDS011;53853;51.982;5.928;2023-08-06T00:22:01;5.70;;;4.80;;
66946;SDS011;53853;51.982;5.928;2023-08-06T00:24:34;7.40;;;6.30;;
66946;SDS011;53853;51.982;5.928;2023-08-06T00:27:04;8.55;;;4.63;;
66946;SDS011;53853;51.982;5.928;2023-08-06T00:29:35;4.70;;;3.70;;
66946;SDS011;53853;51.982;5.928;2023-08-06T00:32:05;4.90;;;3.97;;
66946;SDS011;53853;51.982;5.928;2023-08-06T00:34:35;5.18;;;4.13;;
66946;SDS011;53853;51.982;5.928;2023-08-06T00:37:05;3.90;;;3.28;;
66946;SDS011;53853;51.982;5.928;2023-08-06T00:39:38;3.33;;;2.97;;
66946;SDS011;53853;51.982;5.928;2023-08-06T00:42:08;3.78;;;3.05;;
66946;SDS011;53853;51.982;5.928;2023-08-06T00:44:38;3.90;;;3.22;;
66946;SDS011;53853;51.982;5.928;2023-08-06T00:47:08;4.70;;;3.70;;
66946;SDS011;53853;51.982;5.928;2023-08-06T00:49:38;4.53;;;3.67;;
66946;SDS011;53853;51.982;5.928;2023-08-06T00:52:08;6.10;;;4.30;;
66946;SDS011;53853;51.982;5.928;2023-08-06T00:54:41;6.75;;;4.50;;
66946;SDS011;53853;51.982;5.928;2023-08-06T00:57:11;5.78;;;4.65;;
66946;SDS011;53853;51.982;5.928;2023-08-06T00:59:42;6.20;;;5.32;;
66946;SDS011;53853;51.982;5.928;2023-08-06T01:02:12;8.43;;;5.70;;
66946;SDS011;53853;51.982;5.928;2023-08-06T01:04:42;7.93;;;6.50;;
66946;SDS011;53853;51.982;5.928;2023-08-06T01:07:14;5.95;;;5.28;;
66946;SDS011;53853;51.982;5.928;2023-08-06T01:09:54;6.63;;;4.82;;
66946;SDS011;53853;51.982;5.928;2023-08-06T01:12:34;6.18;;;4.78;;
66946;SDS011;53853;51.982;5.928;2023-08-06T01:15:14;4.85;;;3.95;;
66946;SDS011;53853;51.982;5.928;2023-08-06T01:17:48;6.30;;;5.57;;
66946;SDS011;53853;51.982;5.928;2023-08-06T01:20:18;5.68;;;4.15;;
66946;SDS011;53853;51.982;5.928;2023-08-06T01:22:51;5.22;;;4.50;;
66946;SDS011;53853;51.982;5.928;2023-08-06T01:25:21;4.47;;;3.92;;
66946;SDS011;53853;51.982;5.928;2023-08-06T01:27:59;4.32;;;3.50;;
66946;SDS011;53853;51.982;5.928;2023-08-06T01:30:39;4.65;;;3.20;;
66946;SDS011;53853;51.982;5.928;2023-08-06T01:33:12;4.07;;;3.00;;
66946;SDS011;53853;51.982;5.928;2023-08-06T01:35:48;3.05;;;2.35;;
66946;SDS011;53853;51.982;5.928;2023-08-06T01:38:22;4.05;;;2.88;;
66946;SDS011;53853;51.982;5.928;2023-08-06T01:40:54;3.90;;;2.80;;
66946;SDS011;53853;51.982;5.928;2023-08-06T01:43:24;5.82;;;4.10;;
66946;SDS011;53853;51.982;5.928;2023-08-06T01:45:53;4.00;;;2.88;;
66946;SDS011;53853;51.982;5.928;2023-08-06T01:48:24;5.13;;;3.38;;
66946;SDS011;53853;51.982;5.928;2023-08-06T01:50:54;4.90;;;4.05;;
66946;SDS011;53853;51.982;5.928;2023-08-06T01:53:27;4.65;;;4.05;;
66946;SDS011;53853;51.982;5.928;2023-08-06T01:55:57;4.65;;;4.15;;
66946;SDS011;53853;51.982;5.928;2023-08-06T01:58:27;5.97;;;5.15;;
66946;SDS011;53853;51.982;5.928;2023-08-06T02:00:57;5.32;;;4.82;;
66946;SDS011;53853;51.982;5.928;2023-08-06T02:03:27;5.35;;;4.72;;
66946;SDS011;53853;51.982;5.928;2023-08-06T02:05:57;6.38;;;5.63;;
66946;SDS011;53853;51.982;5.928;2023-08-06T02:08:29;5.90;;;5.30;;
66946;SDS011;53853;51.982;5.928;2023-08-06T02:10:59;5.75;;;5.07;;
66946;SDS011;53853;51.982;5.928;2023-08-06T02:13:30;6.72;;;5.78;;
66946;SDS011;53853;51.982;5.928;2023-08-06T02:16:00;7.47;;;5.85;;
66946;SDS011;53853;51.982;5.928;2023-08-06T02:18:30;6.07;;;5.03;;
66946;SDS011;53853;51.982;5.928;2023-08-06T02:21:00;4.82;;;4.05;;
66946;SDS011;53853;51.982;5.928;2023-08-06T02:23:33;5.20;;;4.68;;
66946;SDS011;53853;51.982;5.928;2023-08-06T02:26:03;4.30;;;3.67;;
66946;SDS011;53853;51.982;5.928;2023-08-06T02:28:33;4.85;;;4.25;;
66946;SDS011;53853;51.982;5.928;2023-08-06T02:31:03;4.53;;;3.63;;
66946;SDS011;53853;51.982;5.928;2023-08-06T02:33:36;5.40;;;4.20;;
66946;SDS011;53853;51.982;5.928;2023-08-06T02:36:06;5.65;;;4.93;;
66946;SDS011;53853;51.982;5.928;2023-08-06T02:38:39;6.95;;;6.10;;
66946;SDS011;53853;51.982;5.928;2023-08-06T02:41:09;4.93;;;4.43;;
66946;SDS011;53853;51.982;5.928;2023-08-06T02:43:39;4.63;;;4.07;;
66946;SDS011;53853;51.982;5.928;2023-08-06T02:46:08;5.70;;;3.95;;
66946;SDS011;53853;51.982;5.928;2023-08-06T02:48:38;4.78;;;3.65;;
66946;SDS011;53853;51.982;5.928;2023-08-06T02:51:09;4.93;;;4.18;;
66946;SDS011;53853;51.982;5.928;2023-08-06T02:53:41;6.15;;;4.05;;
66946;SDS011;53853;51.982;5.928;2023-08-06T02:56:14;5.07;;;4.57;;
66946;SDS011;53853;51.982;5.928;2023-08-06T02:59:02;4.32;;;3.88;;
66946;SDS011;53853;51.982;5.928;2023-08-06T03:01:52;4.57;;;3.80;;
66946;SDS011;53853;51.982;5.928;2023-08-06T03:04:30;3.70;;;3.30;;
66946;SDS011;53853;51.982;5.928;2023-08-06T03:07:00;3.88;;;3.45;;
66946;SDS011;53853;51.982;5.928;2023-08-06T03:09:41;4.95;;;3.92;;
66946;SDS011;53853;51.982;5.928;2023-08-06T03:12:11;4.03;;;2.85;;
66946;SDS011;53853;51.982;5.928;2023-08-06T03:14:41;4.63;;;4.07;;
66946;SDS011;53853;51.982;5.928;2023-08-06T03:17:11;4.38;;;3.38;;
66946;SDS011;53853;51.982;5.928;2023-08-06T03:19:42;3.40;;;3.05;;
66946;SDS011;53853;51.982;5.928;2023-08-06T03:22:12;4.68;;;3.33;;
66946;SDS011;53853;51.982;5.928;2023-08-06T03:24:45;4.90;;;4.15;;
66946;SDS011;53853;51.982;5.928;2023-08-06T03:27:20;4.38;;;3.78;;
66946;SDS011;53853;51.982;5.928;2023-08-06T03:29:51;5.25;;;3.47;;
66946;SDS011;53853;51.982;5.928;2023-08-06T03:32:23;4.10;;;3.05;;
66946;SDS011;53853;51.982;5.928;2023-08-06T03:34:54;4.95;;;4.07;;
66946;SDS011;53853;51.982;5.928;2023-08-06T03:37:28;4.10;;;3.67;;
66946;SDS011;53853;51.982;5.928;2023-08-06T03:40:00;4.85;;;4.03;;
66946;SDS011;53853;51.982;5.928;2023-08-06T03:42:33;3.45;;;2.78;;
66946;SDS011;53853;51.982;5.928;2023-08-06T03:45:04;4.75;;;3.78;;
66946;SDS011;53853;51.982;5.928;2023-08-06T03:47:36;3.73;;;2.97;;
66946;SDS011;53853;51.982;5.928;2023-08-06T03:50:07;4.10;;;3.50;;
66946;SDS011;53853;51.982;5.928;2023-08-06T03:52:38;3.28;;;2.88;;
66946;SDS011;53853;51.982;5.928;2023-08-06T03:55:11;4.65;;;3.67;;
66946;SDS011;53853;51.982;5.928;2023-08-06T03:57:41;4.38;;;3.78;;
66946;SDS011;53853;51.982;5.928;2023-08-06T04:00:11;4.10;;;3.25;;
66946;SDS011;53853;51.982;5.928;2023-08-06T04:02:41;4.43;;;3.80;;
66946;SDS011;53853;51.982;5.928;2023-08-06T04:05:13;4.85;;;4.35;;
66946;SDS011;53853;51.982;5.928;2023-08-06T04:07:43;3.50;;;2.92;;
66946;SDS011;53853;51.982;5.928;2023-08-06T04:10:16;6.32;;;3.65;;
66946;SDS011;53853;51.982;5.928;2023-08-06T04:12:46;4.57;;;3.92;;
66946;SDS011;53853;51.982;5.928;2023-08-06T04:15:16;4.85;;;4.03;;
66946;SDS011;53853;51.982;5.928;2023-08-06T04:17:46;5.93;;;4.15;;
66946;SDS011;53853;51.982;5.928;2023-08-06T04:20:16;5.00;;;3.90;;
66946;SDS011;53853;51.982;5.928;2023-08-06T04:22:46;4.45;;;3.22;;
66946;SDS011;53853;51.982;5.928;2023-08-06T04:25:18;4.35;;;3.53;;
66946;SDS011;53853;51.982;5.928;2023-08-06T04:27:50;5.07;;;3.85;;
66946;SDS011;53853;51.982;5.928;2023-08-06T04:30:20;6.68;;;4.47;;
66946;SDS011;53853;51.982;5.928;2023-08-06T04:32:50;4.68;;;3.55;;
66946;SDS011;53853;51.982;5.928;2023-08-06T04:35:21;3.80;;;3.30;;
66946;SDS011;53853;51.982;5.928;2023-08-06T04:37:51;5.10;;;3.90;;
66946;SDS011;53853;51.982;5.928;2023-08-06T04:40:24;4.35;;;3.20;;
66946;SDS011;53853;51.982;5.928;2023-08-06T04:42:54;4.15;;;3.10;;
66946;SDS011;53853;51.982;5.928;2023-08-06T04:45:24;4.20;;;3.60;;
66946;SDS011;53853;51.982;5.928;2023-08-06T04:47:54;5.70;;;4.45;;
66946;SDS011;53853;51.982;5.928;2023-08-06T04:50:24;4.50;;;3.60;;
66946;SDS011;53853;51.982;5.928;2023-08-06T04:52:54;4.82;;;3.80;;
66946;SDS011;53853;51.982;5.928;2023-08-06T04:55:27;5.85;;;4.25;;
66946;SDS011;53853;51.982;5.928;2023-08-06T04:57:57;5.30;;;4.60;;
66946;SDS011;53853;51.982;5.928;2023-08-06T05:00:27;4.45;;;3.70;;
66946;SDS011;53853;51.982;5.928;2023-08-06T05:02:57;5.55;;;3.65;;
66946;SDS011;53853;51.982;5.928;2023-08-06T05:05:28;5.82;;;4.32;;
66946;SDS011;53853;51.982;5.928;2023-08-06T05:07:58;5.10;;;3.08;;
66946;SDS011;53853;51.982;5.928;2023-08-06T05:10:30;3.10;;;2.53;;
66946;SDS011;53853;51.982;5.928;2023-08-06T05:13:00;4.32;;;3.50;;
66946;SDS011;53853;51.982;5.928;2023-08-06T05:15:30;5.32;;;4.82;;
66946;SDS011;53853;51.982;5.928;2023-08-06T05:18:00;4.55;;;3.97;;
66946;SDS011;53853;51.982;5.928;2023-08-06T05:20:30;3.40;;;3.03;;
66946;SDS011;53853;51.982;5.928;2023-08-06T05:23:04;3.45;;;2.60;;
66946;SDS011;53853;51.982;5.928;2023-08-06T05:25:36;4.53;;;3.80;;
66946;SDS011;53853;51.982;5.928;2023-08-06T05:28:06;5.05;;;3.72;;
66946;SDS011;53853;51.982;5.928;2023-08-06T05:30:38;6.72;;;4.78;;
66946;SDS011;53853;51.982;5.928;2023-08-06T05:33:09;4.60;;;3.92;;
66946;SDS011;53853;51.982;5.928;2023-08-06T05:35:40;4.30;;;3.58;;
66946;SDS011;53853;51.982;5.928;2023-08-06T05:38:10;4.55;;;3.72;;
66946;SDS011;53853;51.982;5.928;2023-08-06T05:40:42;4.32;;;3.92;;
66946;SDS011;53853;51.982;5.928;2023-08-06T05:43:13;6.00;;;5.40;;
66946;SDS011;53853;51.982;5.928;2023-08-06T05:45:44;6.50;;;5.78;;
66946;SDS011;53853;51.982;5.928;2023-08-06T05:48:14;5.68;;;5.18;;
66946;SDS011;53853;51.982;5.928;2023-08-06T05:50:44;6.75;;;6.10;;
66946;SDS011;53853;51.982;5.928;2023-08-06T05:53:14;8.43;;;7.63;;
66946;SDS011;53853;51.982;5.928;2023-08-06T05:55:47;9.63;;;8.63;;
66946;SDS011;53853;51.982;5.928;2023-08-06T05:58:17;7.43;;;6.73;;
66946;SDS011;53853;51.982;5.928;2023-08-06T06:00:47;7.03;;;6.32;;
66946;SDS011;53853;51.982;5.928;2023-08-06T06:03:17;6.72;;;6.03;;
66946;SDS011;53853;51.982;5.928;2023-08-06T06:05:47;7.03;;;5.95;;
66946;SDS011;53853;51.982;5.928;2023-08-06T06:08:17;7.05;;;6.35;;
66946;SDS011;53853;51.982;5.928;2023-08-06T06:10:49;7.75;;;6.43;;
66946;SDS011;53853;51.982;5.928;2023-08-06T06:13:19;6.57;;;5.82;;
66946;SDS011;53853;51.982;5.928;2023-08-06T06:15:49;10.00;;;9.00;;
66946;SDS011;53853;51.982;5.928;2023-08-06T06:18:22;9.50;;;8.50;;
66946;SDS011;53853;51.982;5.928;2023-08-06T06:20:52;10.25;;;8.90;;
66946;SDS011;53853;51.982;5.928;2023-08-06T06:23:22;8.50;;;7.63;;
66946;SDS011;53853;51.982;5.928;2023-08-06T06:25:55;9.32;;;8.43;;
66946;SDS011;53853;51.982;5.928;2023-08-06T06:28:25;7.03;;;6.32;;
66946;SDS011;53853;51.982;5.928;2023-08-06T06:30:59;6.65;;;6.05;;
66946;SDS011;53853;51.982;5.928;2023-08-06T06:33:30;9.32;;;8.43;;
66946;SDS011;53853;51.982;5.928;2023-08-06T06:36:00;7.43;;;6.72;;
66946;SDS011;53853;51.982;5.928;2023-08-06T06:38:33;5.57;;;5.07;;
66946;SDS011;53853;51.982;5.928;2023-08-06T06:41:05;8.65;;;7.85;;
66946;SDS011;53853;51.982;5.928;2023-08-06T06:43:36;8.40;;;7.60;;
66946;SDS011;53853;51.982;5.928;2023-08-06T06:46:06;7.43;;;6.72;;
66946;SDS011;53853;51.982;5.928;2023-08-06T06:48:36;9.07;;;8.15;;
66946;SDS011;53853;51.982;5.928;2023-08-06T06:51:06;8.15;;;7.35;;
66946;SDS011;53853;51.982;5.928;2023-08-06T06:53:36;7.43;;;6.70;;
66946;SDS011;53853;51.982;5.928;2023-08-06T06:56:09;6.95;;;6.35;;
66946;SDS011;53853;51.982;5.928;2023-08-06T06:58:38;7.35;;;6.57;;
66946;SDS011;53853;51.982;5.928;2023-08-06T07:01:09;6.90;;;6.30;;
66946;SDS011;53853;51.982;5.928;2023-08-06T07:03:39;5.45;;;4.93;;
66946;SDS011;53853;51.982;5.928;2023-08-06T07:06:09;5.63;;;5.10;;
66946;SDS011;53853;51.982;5.928;2023-08-06T07:08:41;5.75;;;5.15;;
66946;SDS011;53853;51.982;5.928;2023-08-06T07:11:14;10.40;;;7.10;;
66946;SDS011;53853;51.982;5.928;2023-08-06T07:13:43;6.57;;;5.32;;
66946;SDS011;53853;51.982;5.928;2023-08-06T07:16:14;5.68;;;5.15;;
66946;SDS011;53853;51.982;5.928;2023-08-06T07:18:44;11.02;;;9.13;;
66946;SDS011;53853;51.982;5.928;2023-08-06T07:21:13;9.32;;;8.48;;
66946;SDS011;53853;51.982;5.928;2023-08-06T07:23:43;12.65;;;11.23;;
66946;SDS011;53853;51.982;5.928;2023-08-06T07:26:18;10.55;;;9.45;;
66946;SDS011;53853;51.982;5.928;2023-08-06T07:28:48;9.65;;;8.75;;
66946;SDS011;53853;51.982;5.928;2023-08-06T07:31:18;9.75;;;8.75;;
66946;SDS011;53853;51.982;5.928;2023-08-06T07:33:48;7.85;;;7.15;;
66946;SDS011;53853;51.982;5.928;2023-08-06T07:36:18;6.82;;;6.10;;
66946;SDS011;53853;51.982;5.928;2023-08-06T07:38:48;7.13;;;6.43;;
66946;SDS011;53853;51.982;5.928;2023-08-06T07:41:24;8.48;;;7.68;;
66946;SDS011;53853;51.982;5.928;2023-08-06T07:43:54;7.30;;;6.60;;
66946;SDS011;53853;51.982;5.928;2023-08-06T07:46:23;8.35;;;7.50;;
66946;SDS011;53853;51.982;5.928;2023-08-06T07:48:53;6.97;;;6.28;;
66946;SDS011;53853;51.982;5.928;2023-08-06T07:51:23;6.28;;;5.68;;
66946;SDS011;53853;51.982;5.928;2023-08-06T07:53:53;5.55;;;5.05;;
66946;SDS011;53853;51.982;5.928;2023-08-06T07:56:26;9.68;;;8.75;;
66946;SDS011;53853;51.982;5.928;2023-08-06T07:58:56;6.40;;;5.80;;
66946;SDS011;53853;51.982;5.928;2023-08-06T08:01:26;7.43;;;6.72;;
66946;SDS011;53853;51.982;5.928;2023-08-06T08:03:55;6.32;;;5.72;;
66946;SDS011;53853;51.982;5.928;2023-08-06T08:06:25;6.22;;;5.63;;
66946;SDS011;53853;51.982;5.928;2023-08-06T08:08:55;6.07;;;5.53;;
66946;SDS011;53853;51.982;5.928;2023-08-06T08:11:28;7.53;;;6.82;;
66946;SDS011;53853;51.982;5.928;2023-08-06T08:13:58;6.72;;;5.80;;
66946;SDS011;53853;51.982;5.928;2023-08-06T08:16:28;9.05;;;8.15;;
66946;SDS011;53853;51.982;5.928;2023-08-06T08:18:58;10.10;;;9.15;;
66946;SDS011;53853;51.982;5.928;2023-08-06T08:21:29;7.93;;;7.22;;
66946;SDS011;53853;51.982;5.928;2023-08-06T08:23:59;10.15;;;9.18;;
66946;SDS011;53853;51.982;5.928;2023-08-06T08:26:32;10.57;;;8.98;;
66946;SDS011;53853;51.982;5.928;2023-08-06T08:29:02;6.28;;;5.68;;
66946;SDS011;53853;51.982;5.928;2023-08-06T08:31:32;7.18;;;6.53;;
66946;SDS011;53853;51.982;5.928;2023-08-06T08:34:05;8.43;;;7.70;;
66946;SDS011;53853;51.982;5.928;2023-08-06T08:36:35;8.23;;;7.43;;
66946;SDS011;53853;51.982;5.928;2023-08-06T08:39:05;7.32;;;6.72;;
66946;SDS011;53853;51.982;5.928;2023-08-06T08:41:37;6.35;;;5.75;;
66946;SDS011;53853;51.982;5.928;2023-08-06T08:44:08;8.15;;;7.35;;
66946;SDS011;53853;51.982;5.928;2023-08-06T08:46:39;8.70;;;7.28;;
66946;SDS011;53853;51.982;5.928;2023-08-06T08:49:11;9.55;;;8.43;;
66946;SDS011;53853;51.982;5.928;2023-08-06T08:51:41;9.48;;;8.57;;
66946;SDS011;53853;51.982;5.928;2023-08-06T08:54:14;7.13;;;6.53;;
66946;SDS011;53853;51.982;5.928;2023-08-06T08:56:48;8.07;;;7.28;;
66946;SDS011;53853;51.982;5.928;2023-08-06T08:59:18;7.03;;;6.32;;
66946;SDS011;53853;51.982;5.928;2023-08-06T09:01:48;9.02;;;8.13;;
66946;SDS011;53853;51.982;5.928;2023-08-06T09:04:19;8.93;;;8.02;;
66946;SDS011;53853;51.982;5.928;2023-08-06T09:06:51;7.18;;;6.55;;
66946;SDS011;53853;51.982;5.928;2023-08-06T09:09:25;7.95;;;7.15;;
66946;SDS011;53853;51.982;5.928;2023-08-06T09:12:02;7.63;;;6.93;;
66946;SDS011;53853;51.982;5.928;2023-08-06T09:14:47;5.88;;;5.28;;
66946;SDS011;53853;51.982;5.928;2023-08-06T09:17:18;7.45;;;6.60;;
66946;SDS011;53853;51.982;5.928;2023-08-06T09:19:48;5.78;;;5.15;;
66946;SDS011;53853;51.982;5.928;2023-08-06T09:22:18;6.88;;;6.18;;
66946;SDS011;53853;51.982;5.928;2023-08-06T09:24:48;6.25;;;5.65;;
66946;SDS011;53853;51.982;5.928;2023-08-06T09:27:22;8.45;;;7.65;;
66946;SDS011;53853;51.982;5.928;2023-08-06T09:29:52;9.02;;;6.40;;
66946;SDS011;53853;51.982;5.928;2023-08-06T09:32:22;5.65;;;5.13;;
66946;SDS011;53853;51.982;5.928;2023-08-06T09:34:55;8.18;;;6.60;;
66946;SDS011;53853;51.982;5.928;2023-08-06T09:37:27;6.22;;;5.63;;
66946;SDS011;53853;51.982;5.928;2023-08-06T09:40:20;8.10;;;6.32;;
66946;SDS011;53853;51.982;5.928;2023-08-06T09:42:56;10.38;;;6.38;;
66946;SDS011;53853;51.982;5.928;2023-08-06T09:45:28;6.20;;;5.60;;
66946;SDS011;53853;51.982;5.928;2023-08-06T09:48:01;7.55;;;6.75;;
66946;SDS011;53853;51.982;5.928;2023-08-06T09:50:33;6.97;;;6.28;;
66946;SDS011;53853;51.982;5.928;2023-08-06T09:53:05;8.63;;;7.00;;
66946;SDS011;53853;51.982;5.928;2023-08-06T09:55:36;7.43;;;6.10;;
66946;SDS011;53853;51.982;5.928;2023-08-06T09:58:09;8.15;;;7.35;;
66946;SDS011;53853;51.982;5.928;2023-08-06T10:03:09;7.70;;;6.80;;
66946;SDS011;53853;51.982;5.928;2023-08-06T10:05:44;8.07;;;7.00;;
66946;SDS011;53853;51.982;5.928;2023-08-06T10:08:15;7.78;;;6.60;;
66946;SDS011;53853;51.982;5.928;2023-08-06T10:10:45;9.23;;;8.18;;
66946;SDS011;53853;51.982;5.928;2023-08-06T10:13:18;7.95;;;6.20;;
66946;SDS011;53853;51.982;5.928;2023-08-06T10:15:49;7.30;;;6.60;;
66946;SDS011;53853;51.982;5.928;2023-08-06T10:18:20;8.25;;;7.45;;
66946;SDS011;53853;51.982;5.928;2023-08-06T10:20:51;10.48;;;8.32;;
66946;SDS011;53853;51.982;5.928;2023-08-06T10:23:21;14.27;;;9.88;;
66946;SDS011;53853;51.982;5.928;2023-08-06T10:26:04;16.95;;;11.68;;
66946;SDS011;53853;51.982;5.928;2023-08-06T10:28:37;10.18;;;9.23;;
66946;SDS011;53853;51.982;5.928;2023-08-06T10:31:07;12.30;;;11.10;;
66946;SDS011;53853;51.982;5.928;2023-08-06T10:33:41;11.73;;;10.60;;
66946;SDS011;53853;51.982;5.928;2023-08-06T10:36:12;10.10;;;9.20;;
66946;SDS011;53853;51.982;5.928;2023-08-06T10:38:45;5.57;;;5.03;;
66946;SDS011;53853;51.982;5.928;2023-08-06T10:41:17;5.50;;;4.05;;
66946;SDS011;53853;51.982;5.928;2023-08-06T10:43:54;2.90;;;2.30;;
66946;SDS011;53853;51.982;5.928;2023-08-06T10:46:36;2.53;;;1.67;;
66946;SDS011;53853;51.982;5.928;2023-08-06T10:49:06;2.38;;;1.67;;
66946;SDS011;53853;51.982;5.928;2023-08-06T10:51:37;2.40;;;1.40;;
66946;SDS011;53853;51.982;5.928;2023-08-06T10:54:10;2.65;;;1.33;;
66946;SDS011;53853;51.982;5.928;2023-08-06T10:56:40;2.03;;;1.33;;
66946;SDS011;53853;51.982;5.928;2023-08-06T10:59:14;2.10;;;1.30;;
66946;SDS011;53853;51.982;5.928;2023-08-06T11:01:44;2.13;;;1.23;;
66946;SDS011;53853;51.982;5.928;2023-08-06T11:04:15;3.38;;;1.50;;
66946;SDS011;53853;51.982;5.928;2023-08-06T11:06:45;2.80;;;1.30;;
66946;SDS011;53853;51.982;5.928;2023-08-06T11:09:21;2.50;;;1.38;;
66946;SDS011;53853;51.982;5.928;2023-08-06T11:11:52;2.75;;;1.15;;
66946;SDS011;53853;51.982;5.928;2023-08-06T11:14:25;2.00;;;1.20;;
66946;SDS011;53853;51.982;5.928;2023-08-06T11:16:55;4.95;;;2.45;;
66946;SDS011;53853;51.982;5.928;2023-08-06T11:19:25;2.53;;;1.67;;
66946;SDS011;53853;51.982;5.928;2023-08-06T11:21:55;2.50;;;1.70;;
66946;SDS011;53853;51.982;5.928;2023-08-06T11:24:27;4.90;;;1.50;;
66946;SDS011;53853;51.982;5.928;2023-08-06T11:26:57;3.95;;;1.80;;
66946;SDS011;53853;51.982;5.928;2023-08-06T11:29:29;2.42;;;1.95;;
66946;SDS011;53853;51.982;5.928;2023-08-06T11:32:05;3.63;;;1.48;;
66946;SDS011;53853;51.982;5.928;2023-08-06T11:34:36;3.08;;;2.10;;
66946;SDS011;53853;51.982;5.928;2023-08-06T11:37:08;3.17;;;2.20;;
66946;SDS011;53853;51.982;5.928;2023-08-06T11:39:38;4.68;;;2.50;;
66946;SDS011;53853;51.982;5.928;2023-08-06T11:42:12;3.95;;;2.53;;
66946;SDS011;53853;51.982;5.928;2023-08-06T11:44:45;3.90;;;2.60;;
66946;SDS011;53853;51.982;5.928;2023-08-06T11:47:16;4.32;;;3.00;;
66946;SDS011;53853;51.982;5.928;2023-08-06T11:49:46;4.03;;;2.60;;
66946;SDS011;53853;51.982;5.928;2023-08-06T11:52:18;5.63;;;2.97;;
66946;SDS011;53853;51.982;5.928;2023-08-06T11:54:59;5.78;;;2.65;;
66946;SDS011;53853;51.982;5.928;2023-08-06T11:57:32;3.92;;;2.30;;
66946;SDS011;53853;51.982;5.928;2023-08-06T12:00:06;3.90;;;2.42;;
66946;SDS011;53853;51.982;5.928;2023-08-06T12:02:44;3.40;;;2.22;;
66946;SDS011;53853;51.982;5.928;2023-08-06T12:05:15;2.72;;;1.80;;
66946;SDS011;53853;51.982;5.928;2023-08-06T12:07:47;3.75;;;1.95;;
66946;SDS011;53853;51.982;5.928;2023-08-06T12:10:18;3.95;;;2.65;;
66946;SDS011;53853;51.982;5.928;2023-08-06T12:12:49;4.50;;;2.67;;
66946;SDS011;53853;51.982;5.928;2023-08-06T12:15:22;5.38;;;2.90;;
66946;SDS011;53853;51.982;5.928;2023-08-06T12:17:52;6.57;;;2.92;;
66946;SDS011;53853;51.982;5.928;2023-08-06T12:20:22;5.75;;;3.13;;
66946;SDS011;53853;51.982;5.928;2023-08-06T12:22:52;5.55;;;2.92;;
66946;SDS011;53853;51.982;5.928;2023-08-06T12:25:22;7.05;;;3.42;;
66946;SDS011;53853;51.982;5.928;2023-08-06T12:27:52;6.15;;;3.50;;
66946;SDS011;53853;51.982;5.928;2023-08-06T12:30:25;6.47;;;3.88;;
66946;SDS011;53853;51.982;5.928;2023-08-06T12:32:55;4.82;;;3.40;;
66946;SDS011;53853;51.982;5.928;2023-08-06T12:35:25;5.28;;;3.08;;
66946;SDS011;53853;51.982;5.928;2023-08-06T12:37:55;4.75;;;3.45;;
66946;SDS011;53853;51.982;5.928;2023-08-06T12:40:25;4.22;;;2.85;;
66946;SDS011;53853;51.982;5.928;2023-08-06T12:42:55;5.57;;;3.25;;
66946;SDS011;53853;51.982;5.928;2023-08-06T12:45:28;5.60;;;3.17;;
66946;SDS011;53853;51.982;5.928;2023-08-06T12:47:58;5.15;;;3.03;;
66946;SDS011;53853;51.982;5.928;2023-08-06T12:50:28;6.50;;;4.28;;
66946;SDS011;53853;51.982;5.928;2023-08-06T12:52:58;4.32;;;3.15;;
66946;SDS011;53853;51.982;5.928;2023-08-06T12:55:29;5.40;;;3.80;;
66946;SDS011;53853;51.982;5.928;2023-08-06T12:57:59;5.28;;;3.55;;
66946;SDS011;53853;51.982;5.928;2023-08-06T13:00:32;5.05;;;3.70;;
66946;SDS011;53853;51.982;5.928;2023-08-06T13:03:02;7.18;;;3.58;;
66946;SDS011;53853;51.982;5.928;2023-08-06T13:05:32;5.50;;;3.30;;
66946;SDS011;53853;51.982;5.928;2023-08-06T13:08:03;6.05;;;3.00;;
66946;SDS011;53853;51.982;5.928;2023-08-06T13:10:33;5.05;;;3.42;;
66946;SDS011;53853;51.982;5.928;2023-08-06T13:13:03;5.63;;;3.88;;
66946;SDS011;53853;51.982;5.928;2023-08-06T13:15:35;4.57;;;3.00;;
66946;SDS011;53853;51.982;5.928;2023-08-06T13:18:05;5.53;;;3.40;;
66946;SDS011;53853;51.982;5.928;2023-08-06T13:20:38;6.65;;;2.75;;
66946;SDS011;53853;51.982;5.928;2023-08-06T13:23:08;4.65;;;3.80;;
66946;SDS011;53853;51.982;5.928;2023-08-06T13:25:41;5.25;;;3.72;;
66946;SDS011;53853;51.982;5.928;2023-08-06T13:28:11;4.97;;;3.33;;
66946;SDS011;53853;51.982;5.928;2023-08-06T13:30:44;5.72;;;3.63;;
66946;SDS011;53853;51.982;5.928;2023-08-06T13:33:47;4.65;;;2.83;;
66946;SDS011;53853;51.982;5.928;2023-08-06T13:39:38;4.30;;;2.45;;
66946;SDS011;53853;51.982;5.928;2023-08-06T13:43:22;3.25;;;1.92;;
66946;SDS011;53853;51.982;5.928;2023-08-06T14:03:47;4.65;;;2.95;;
66946;SDS011;53853;51.982;5.928;2023-08-06T14:10:26;5.90;;;2.63;;
66946;SDS011;53853;51.982;5.928;2023-08-06T14:17:32;5.63;;;3.63;;
66946;SDS011;53853;51.982;5.928;2023-08-06T14:31:59;4.85;;;3.00;;
66946;SDS011;53853;51.982;5.928;2023-08-06T14:35:41;4.95;;;3.00;;
66946;SDS011;53853;51.982;5.928;2023-08-06T14:39:22;5.82;;;4.22;;
66946;SDS011;53853;51.982;5.928;2023-08-06T14:42:58;4.63;;;3.30;;
66946;SDS011;53853;51.982;5.928;2023-08-06T14:48:51;4.65;;;2.53;;
66946;SDS011;53853;51.982;5.928;2023-08-06T14:51:58;8.05;;;4.25;;
66946;SDS011;53853;51.982;5.928;2023-08-06T14:55:02;5.00;;;3.35;;
66946;SDS011;53853;51.982;5.928;2023-08-06T14:58:02;5.47;;;3.83;;
66946;SDS011;53853;51.982;5.928;2023-08-06T15:00:32;5.95;;;4.10;;
66946;SDS011;53853;51.982;5.928;2023-08-06T15:03:02;7.05;;;3.70;;
66946;SDS011;53853;51.982;5.928;2023-08-06T15:05:32;6.20;;;3.53;;
66946;SDS011;53853;51.982;5.928;2023-08-06T15:08:05;5.32;;;4.40;;
66946;SDS011;53853;51.982;5.928;2023-08-06T15:10:35;6.30;;;4.18;;
66946;SDS011;53853;51.982;5.928;2023-08-06T15:13:05;7.95;;;3.05;;
66946;SDS011;53853;51.982;5.928;2023-08-06T15:15:35;6.15;;;3.85;;
66946;SDS011;53853;51.982;5.928;2023-08-06T15:18:08;4.22;;;3.35;;
66946;SDS011;53853;51.982;5.928;2023-08-06T15:20:40;4.93;;;3.20;;
66946;SDS011;53853;51.982;5.928;2023-08-06T15:23:13;5.93;;;3.95;;
66946;SDS011;53853;51.982;5.928;2023-08-06T15:25:43;6.47;;;4.28;;
66946;SDS011;53853;51.982;5.928;2023-08-06T15:28:13;6.13;;;4.57;;
66946;SDS011;53853;51.982;5.928;2023-08-06T15:30:44;6.40;;;3.60;;
66946;SDS011;53853;51.982;5.928;2023-08-06T15:33:18;6.78;;;4.20;;
66946;SDS011;53853;51.982;5.928;2023-08-06T15:35:51;6.20;;;4.18;;
66946;SDS011;53853;51.982;5.928;2023-08-06T15:38:23;5.95;;;4.00;;
66946;SDS011;53853;51.982;5.928;2023-08-06T15:40:53;5.63;;;4.10;;
66946;SDS011;53853;51.982;5.928;2023-08-06T15:43:23;5.07;;;4.03;;
66946;SDS011;53853;51.982;5.928;2023-08-06T15:45:53;5.10;;;4.03;;
66946;SDS011;53853;51.982;5.928;2023-08-06T15:48:23;5.25;;;3.70;;
66946;SDS011;53853;51.982;5.928;2023-08-06T15:50:55;6.18;;;4.13;;
66946;SDS011;53853;51.982;5.928;2023-08-06T15:53:28;7.28;;;4.32;;
66946;SDS011;53853;51.982;5.928;2023-08-06T15:55:58;5.72;;;4.13;;
66946;SDS011;53853;51.982;5.928;2023-08-06T15:58:28;5.05;;;4.13;;
66946;SDS011;53853;51.982;5.928;2023-08-06T16:00:58;7.20;;;4.05;;
66946;SDS011;53853;51.982;5.928;2023-08-06T16:03:28;4.80;;;3.35;;
66946;SDS011;53853;51.982;5.928;2023-08-06T16:05:58;6.53;;;3.35;;
66946;SDS011;53853;51.982;5.928;2023-08-06T16:08:31;5.15;;;2.75;;